KHII

Details ICAO KHII (HII)
Name LAKE HAVASU CITY
Region United States
Timezone America/Phoenix (UTC-7.0)
Plans Departing 17
Arriving 22
Stats Elevation 781 ft / 238 m (AMSL)
Location 34.571123° -114.358277°
Runways 1
Magnetic Variation 11.177° E
Sunrise 2017-12-17 14:39:46 UTC / 2017-12-17 07:39:46 Local
Sunset 2017-12-18 00:30:22 UTC / 2017-12-17 17:30:22 Local
Advertisement - Login to hide

Runways

ID Width Length Bearing (true) Bearing (mag) Surface Threshold Offset Overrun Length
14 100 ft / 30 m 8,012 ft / 2,442 m 149.75° 138.57° Asphalt 0 ft / 0 m 200 ft / 61 m
32 100 ft / 30 m 8,012 ft / 2,442 m 329.76° 318.58° Asphalt 0 ft / 0 m 200 ft / 61 m

Map

Weather


0- 5 10 15 20 25 30 35+ Temperature / ° C

Clouds and Precipitation
Forecast for 2017-12-17 12:00 UTC. Updated 38 minutes ago

Ground ~20,000 ft ~40,000 ft Winds

METAR

KHII 171135Z AUTO 35011G15KT 10SM FEW060 BKN075 13/M04 A2985 RMK AO2

TAF

Not found

Frequencies

Recorded 119.02 MHz AWOS 3
Unicom 122.70 MHz CTAF/UNICOM
Warning: Do not use this data for real-world aviation or navigation. No guarantee of current accuracy is given.